sensor_id;sensor_type;location;lat;lon;timestamp;temperature;humidity
18888;DHT22;9576;47.792;9.628;2022-07-12T00:00:19;15.40;99.90
18888;DHT22;9576;47.792;9.628;2022-07-12T00:03:21;15.40;99.90
18888;DHT22;9576;47.792;9.628;2022-07-12T00:06:25;15.30;99.90
18888;DHT22;9576;47.792;9.628;2022-07-12T00:09:27;15.30;99.90
18888;DHT22;9576;47.792;9.628;2022-07-12T00:12:29;15.30;99.90
18888;DHT22;9576;47.792;9.628;2022-07-12T00:15:31;15.30;99.90
18888;DHT22;9576;47.792;9.628;2022-07-12T00:18:33;15.20;99.90
18888;DHT22;9576;47.792;9.628;2022-07-12T00:21:36;15.20;99.90
18888;DHT22;9576;47.792;9.628;2022-07-12T00:24:39;15.20;99.90
18888;DHT22;9576;47.792;9.628;2022-07-12T00:27:41;15.10;99.90
18888;DHT22;9576;47.792;9.628;2022-07-12T00:30:43;15.10;99.90
18888;DHT22;9576;47.792;9.628;2022-07-12T00:33:45;15.00;99.90
18888;DHT22;9576;47.792;9.628;2022-07-12T00:36:48;14.90;99.90
18888;DHT22;9576;47.792;9.628;2022-07-12T00:39:50;14.90;99.90
18888;DHT22;9576;47.792;9.628;2022-07-12T00:42:55;14.90;99.90
18888;DHT22;9576;47.792;9.628;2022-07-12T00:45:57;14.80;99.90
18888;DHT22;9576;47.792;9.628;2022-07-12T00:48:59;14.80;99.90
18888;DHT22;9576;47.792;9.628;2022-07-12T00:52:03;14.70;99.90
18888;DHT22;9576;47.792;9.628;2022-07-12T00:55:07;14.60;99.90
18888;DHT22;9576;47.792;9.628;2022-07-12T00:58:09;14.60;99.90
18888;DHT22;9576;47.792;9.628;2022-07-12T01:01:14;14.60;99.90
18888;DHT22;9576;47.792;9.628;2022-07-12T01:04:16;14.70;99.90
18888;DHT22;9576;47.792;9.628;2022-07-12T01:07:20;14.70;99.90
18888;DHT22;9576;47.792;9.628;2022-07-12T01:10:24;14.70;99.90
18888;DHT22;9576;47.792;9.628;2022-07-12T01:13:26;14.60;99.90
18888;DHT22;9576;47.792;9.628;2022-07-12T01:16:29;14.60;99.90
18888;DHT22;9576;47.792;9.628;2022-07-12T01:19:32;14.60;99.90
18888;DHT22;9576;47.792;9.628;2022-07-12T01:22:40;14.50;99.90
18888;DHT22;9576;47.792;9.628;2022-07-12T01:25:44;14.50;99.90
18888;DHT22;9576;47.792;9.628;2022-07-12T01:28:48;14.50;99.90
18888;DHT22;9576;47.792;9.628;2022-07-12T01:31:50;14.50;99.90
18888;DHT22;9576;47.792;9.628;2022-07-12T01:34:55;14.40;99.90
18888;DHT22;9576;47.792;9.628;2022-07-12T01:37:58;14.40;99.90
18888;DHT22;9576;47.792;9.628;2022-07-12T01:41:02;14.30;99.90
18888;DHT22;9576;47.792;9.628;2022-07-12T01:44:04;14.40;99.90
18888;DHT22;9576;47.792;9.628;2022-07-12T01:47:06;14.30;99.90
18888;DHT22;9576;47.792;9.628;2022-07-12T01:50:09;14.30;99.90
18888;DHT22;9576;47.792;9.628;2022-07-12T01:53:12;14.30;99.90
18888;DHT22;9576;47.792;9.628;2022-07-12T01:56:16;14.20;99.90
18888;DHT22;9576;47.792;9.628;2022-07-12T01:59:20;14.20;99.90
18888;DHT22;9576;47.792;9.628;2022-07-12T02:02:23;14.10;99.90
18888;DHT22;9576;47.792;9.628;2022-07-12T02:05:28;14.10;99.90
18888;DHT22;9576;47.792;9.628;2022-07-12T02:08:30;14.10;99.90
18888;DHT22;9576;47.792;9.628;2022-07-12T02:11:36;14.00;99.90
18888;DHT22;9576;47.792;9.628;2022-07-12T02:14:40;14.00;99.90
18888;DHT22;9576;47.792;9.628;2022-07-12T02:17:42;14.00;99.90
18888;DHT22;9576;47.792;9.628;2022-07-12T02:20:45;14.00;99.90
18888;DHT22;9576;47.792;9.628;2022-07-12T02:23:48;13.90;99.90
18888;DHT22;9576;47.792;9.628;2022-07-12T02:26:52;13.90;99.90
18888;DHT22;9576;47.792;9.628;2022-07-12T02:29:54;14.00;99.90
18888;DHT22;9576;47.792;9.628;2022-07-12T02:32:56;14.00;99.90
18888;DHT22;9576;47.792;9.628;2022-07-12T02:36:00;14.00;99.90
18888;DHT22;9576;47.792;9.628;2022-07-12T02:39:03;13.90;99.90
18888;DHT22;9576;47.792;9.628;2022-07-12T02:42:08;13.90;99.90
18888;DHT22;9576;47.792;9.628;2022-07-12T02:45:16;13.90;99.90
18888;DHT22;9576;47.792;9.628;2022-07-12T02:48:18;13.80;99.90
18888;DHT22;9576;47.792;9.628;2022-07-12T02:51:20;13.80;99.90
18888;DHT22;9576;47.792;9.628;2022-07-12T02:54:23;13.80;99.90
18888;DHT22;9576;47.792;9.628;2022-07-12T02:57:26;13.80;99.90
18888;DHT22;9576;47.792;9.628;2022-07-12T03:00:28;13.80;99.90
18888;DHT22;9576;47.792;9.628;2022-07-12T03:03:30;13.80;99.90
18888;DHT22;9576;47.792;9.628;2022-07-12T03:06:34;13.80;99.90
18888;DHT22;9576;47.792;9.628;2022-07-12T03:09:36;13.80;99.90
18888;DHT22;9576;47.792;9.628;2022-07-12T03:12:40;13.80;99.90
18888;DHT22;9576;47.792;9.628;2022-07-12T03:15:43;13.70;99.90
18888;DHT22;9576;47.792;9.628;2022-07-12T03:18:50;13.70;99.90
18888;DHT22;9576;47.792;9.628;2022-07-12T03:21:52;13.70;99.90
18888;DHT22;9576;47.792;9.628;2022-07-12T03:24:55;13.70;99.90
18888;DHT22;9576;47.792;9.628;2022-07-12T03:27:59;13.60;99.90
18888;DHT22;9576;47.792;9.628;2022-07-12T03:31:01;13.60;99.90
18888;DHT22;9576;47.792;9.628;2022-07-12T03:34:06;13.60;99.90
18888;DHT22;9576;47.792;9.628;2022-07-12T03:37:09;13.60;99.90
18888;DHT22;9576;47.792;9.628;2022-07-12T03:40:12;13.60;99.90
18888;DHT22;9576;47.792;9.628;2022-07-12T03:43:18;13.50;99.90
18888;DHT22;9576;47.792;9.628;2022-07-12T03:46:24;13.50;99.90
18888;DHT22;9576;47.792;9.628;2022-07-12T03:49:26;13.60;99.90
18888;DHT22;9576;47.792;9.628;2022-07-12T03:52:29;13.60;99.90
18888;DHT22;9576;47.792;9.628;2022-07-12T03:55:31;13.60;99.90
18888;DHT22;9576;47.792;9.628;2022-07-12T03:58:34;13.60;99.90
18888;DHT22;9576;47.792;9.628;2022-07-12T04:01:36;13.60;99.90
18888;DHT22;9576;47.792;9.628;2022-07-12T04:04:39;13.60;99.90
18888;DHT22;9576;47.792;9.628;2022-07-12T04:07:45;13.60;99.90
18888;DHT22;9576;47.792;9.628;2022-07-12T04:10:47;13.60;99.90
18888;DHT22;9576;47.792;9.628;2022-07-12T04:13:51;13.60;99.90
18888;DHT22;9576;47.792;9.628;2022-07-12T04:16:53;13.70;99.90
18888;DHT22;9576;47.792;9.628;2022-07-12T04:19:56;13.70;99.90
18888;DHT22;9576;47.792;9.628;2022-07-12T04:22:58;13.70;99.90
18888;DHT22;9576;47.792;9.628;2022-07-12T04:26:01;13.80;99.90
18888;DHT22;9576;47.792;9.628;2022-07-12T04:29:06;13.80;99.90
18888;DHT22;9576;47.792;9.628;2022-07-12T04:32:10;13.80;99.90
18888;DHT22;9576;47.792;9.628;2022-07-12T04:35:13;13.80;99.90
18888;DHT22;9576;47.792;9.628;2022-07-12T04:38:15;13.80;99.90
18888;DHT22;9576;47.792;9.628;2022-07-12T04:41:17;13.90;99.90
18888;DHT22;9576;47.792;9.628;2022-07-12T04:44:20;13.90;99.90
18888;DHT22;9576;47.792;9.628;2022-07-12T04:47:22;13.90;99.90
18888;DHT22;9576;47.792;9.628;2022-07-12T04:50:24;13.90;99.90
18888;DHT22;9576;47.792;9.628;2022-07-12T04:53:27;13.90;99.90
18888;DHT22;9576;47.792;9.628;2022-07-12T04:56:29;14.00;99.90
18888;DHT22;9576;47.792;9.628;2022-07-12T04:59:33;14.00;99.90
18888;DHT22;9576;47.792;9.628;2022-07-12T05:02:36;14.00;99.90
18888;DHT22;9576;47.792;9.628;2022-07-12T05:05:38;14.00;99.90
18888;DHT22;9576;47.792;9.628;2022-07-12T05:08:40;14.00;99.90
18888;DHT22;9576;47.792;9.628;2022-07-12T05:11:42;13.90;99.90
18888;DHT22;9576;47.792;9.628;2022-07-12T05:14:46;14.00;99.90
18888;DHT22;9576;47.792;9.628;2022-07-12T05:17:47;13.90;99.90
18888;DHT22;9576;47.792;9.628;2022-07-12T05:20:49;14.00;99.90
18888;DHT22;9576;47.792;9.628;2022-07-12T05:23:51;14.00;99.90
18888;DHT22;9576;47.792;9.628;2022-07-12T05:26:54;14.00;99.90
18888;DHT22;9576;47.792;9.628;2022-07-12T05:29:57;14.10;99.90
18888;DHT22;9576;47.792;9.628;2022-07-12T05:33:00;14.10;99.90
18888;DHT22;9576;47.792;9.628;2022-07-12T05:36:02;14.20;99.90
18888;DHT22;9576;47.792;9.628;2022-07-12T05:39:05;14.20;99.90
18888;DHT22;9576;47.792;9.628;2022-07-12T05:42:07;14.20;99.90
18888;DHT22;9576;47.792;9.628;2022-07-12T05:45:12;14.30;99.90
18888;DHT22;9576;47.792;9.628;2022-07-12T05:48:14;14.40;99.90
18888;DHT22;9576;47.792;9.628;2022-07-12T05:51:16;14.40;99.90
18888;DHT22;9576;47.792;9.628;2022-07-12T05:54:36;14.40;99.90
18888;DHT22;9576;47.792;9.628;2022-07-12T05:57:39;14.50;99.90
18888;DHT22;9576;47.792;9.628;2022-07-12T06:00:43;14.60;99.90
18888;DHT22;9576;47.792;9.628;2022-07-12T06:03:45;14.70;99.90
18888;DHT22;9576;47.792;9.628;2022-07-12T06:06:47;14.70;99.90
18888;DHT22;9576;47.792;9.628;2022-07-12T06:09:49;14.80;99.90
18888;DHT22;9576;47.792;9.628;2022-07-12T06:12:50;14.90;99.90
18888;DHT22;9576;47.792;9.628;2022-07-12T06:15:54;14.90;99.90
18888;DHT22;9576;47.792;9.628;2022-07-12T06:18:56;15.00;99.90
18888;DHT22;9576;47.792;9.628;2022-07-12T06:21:58;15.10;99.90
18888;DHT22;9576;47.792;9.628;2022-07-12T06:25:01;15.20;99.90
18888;DHT22;9576;47.792;9.628;2022-07-12T06:28:04;15.30;99.90
18888;DHT22;9576;47.792;9.628;2022-07-12T06:31:08;15.30;99.90
18888;DHT22;9576;47.792;9.628;2022-07-12T06:34:10;15.40;99.90
18888;DHT22;9576;47.792;9.628;2022-07-12T06:37:14;15.50;99.90
18888;DHT22;9576;47.792;9.628;2022-07-12T06:40:17;15.70;99.90
18888;DHT22;9576;47.792;9.628;2022-07-12T06:43:19;15.70;99.90
18888;DHT22;9576;47.792;9.628;2022-07-12T06:46:22;15.80;99.90
18888;DHT22;9576;47.792;9.628;2022-07-12T06:49:25;15.90;99.90
18888;DHT22;9576;47.792;9.628;2022-07-12T06:52:27;15.90;99.90
18888;DHT22;9576;47.792;9.628;2022-07-12T06:55:33;16.00;99.90
18888;DHT22;9576;47.792;9.628;2022-07-12T06:58:35;16.20;99.90
18888;DHT22;9576;47.792;9.628;2022-07-12T07:01:38;16.30;99.90
18888;DHT22;9576;47.792;9.628;2022-07-12T07:04:40;16.40;99.90
18888;DHT22;9576;47.792;9.628;2022-07-12T07:07:42;16.50;99.90
18888;DHT22;9576;47.792;9.628;2022-07-12T07:10:44;16.70;99.90
18888;DHT22;9576;47.792;9.628;2022-07-12T07:13:46;16.80;99.90
18888;DHT22;9576;47.792;9.628;2022-07-12T07:16:50;16.90;99.90
18888;DHT22;9576;47.792;9.628;2022-07-12T07:19:54;17.10;99.90
18888;DHT22;9576;47.792;9.628;2022-07-12T07:22:56;17.20;99.90
18888;DHT22;9576;47.792;9.628;2022-07-12T07:25:58;17.40;99.90
18888;DHT22;9576;47.792;9.628;2022-07-12T07:29:00;17.60;99.90
18888;DHT22;9576;47.792;9.628;2022-07-12T07:32:26;17.70;99.90
18888;DHT22;9576;47.792;9.628;2022-07-12T07:35:28;17.90;99.90
18888;DHT22;9576;47.792;9.628;2022-07-12T07:38:30;18.00;99.90
18888;DHT22;9576;47.792;9.628;2022-07-12T07:41:32;18.20;99.90
18888;DHT22;9576;47.792;9.628;2022-07-12T07:44:34;18.40;99.90
18888;DHT22;9576;47.792;9.628;2022-07-12T07:47:44;18.50;99.90
18888;DHT22;9576;47.792;9.628;2022-07-12T07:50:46;18.70;99.90
18888;DHT22;9576;47.792;9.628;2022-07-12T07:53:48;18.90;99.90
18888;DHT22;9576;47.792;9.628;2022-07-12T07:56:50;19.00;99.90
18888;DHT22;9576;47.792;9.628;2022-07-12T07:59:52;19.20;99.90
18888;DHT22;9576;47.792;9.628;2022-07-12T08:02:56;19.30;99.90
18888;DHT22;9576;47.792;9.628;2022-07-12T08:05:58;19.40;99.90
18888;DHT22;9576;47.792;9.628;2022-07-12T08:09:01;19.50;99.90
18888;DHT22;9576;47.792;9.628;2022-07-12T08:12:03;19.50;99.90
18888;DHT22;9576;47.792;9.628;2022-07-12T08:15:06;19.60;99.90
18888;DHT22;9576;47.792;9.628;2022-07-12T08:18:10;19.80;99.90
18888;DHT22;9576;47.792;9.628;2022-07-12T08:21:12;19.90;99.90
18888;DHT22;9576;47.792;9.628;2022-07-12T08:24:14;20.00;99.90
18888;DHT22;9576;47.792;9.628;2022-07-12T08:27:16;20.10;99.90
18888;DHT22;9576;47.792;9.628;2022-07-12T08:30:17;20.20;99.90
18888;DHT22;9576;47.792;9.628;2022-07-12T08:33:21;20.40;99.90
18888;DHT22;9576;47.792;9.628;2022-07-12T08:36:24;20.60;99.90
18888;DHT22;9576;47.792;9.628;2022-07-12T08:39:26;20.70;99.90
18888;DHT22;9576;47.792;9.628;2022-07-12T08:42:28;20.80;99.90
18888;DHT22;9576;47.792;9.628;2022-07-12T08:45:30;20.80;99.90
18888;DHT22;9576;47.792;9.628;2022-07-12T08:48:35;21.00;99.90
18888;DHT22;9576;47.792;9.628;2022-07-12T08:51:37;21.00;99.90
18888;DHT22;9576;47.792;9.628;2022-07-12T08:54:39;21.00;99.90
18888;DHT22;9576;47.792;9.628;2022-07-12T08:57:41;21.10;99.90
18888;DHT22;9576;47.792;9.628;2022-07-12T09:00:43;21.30;99.90
18888;DHT22;9576;47.792;9.628;2022-07-12T09:04:09;21.50;99.90
18888;DHT22;9576;47.792;9.628;2022-07-12T09:07:14;21.70;99.90
18888;DHT22;9576;47.792;9.628;2022-07-12T09:10:16;21.60;99.90
18888;DHT22;9576;47.792;9.628;2022-07-12T09:13:19;21.90;99.90
18888;DHT22;9576;47.792;9.628;2022-07-12T09:16:22;21.90;99.90
18888;DHT22;9576;47.792;9.628;2022-07-12T09:19:25;21.90;99.90
18888;DHT22;9576;47.792;9.628;2022-07-12T09:22:27;22.00;99.90
18888;DHT22;9576;47.792;9.628;2022-07-12T09:25:30;22.20;99.90
18888;DHT22;9576;47.792;9.628;2022-07-12T09:28:32;22.40;99.90
18888;DHT22;9576;47.792;9.628;2022-07-12T09:31:42;22.60;99.90
18888;DHT22;9576;47.792;9.628;2022-07-12T09:35:00;22.60;99.90
18888;DHT22;9576;47.792;9.628;2022-07-12T09:38:19;22.50;99.90
18888;DHT22;9576;47.792;9.628;2022-07-12T09:41:21;22.50;99.90
18888;DHT22;9576;47.792;9.628;2022-07-12T09:44:24;22.60;99.90
18888;DHT22;9576;47.792;9.628;2022-07-12T09:47:29;22.70;99.90
18888;DHT22;9576;47.792;9.628;2022-07-12T09:50:33;22.70;99.90
18888;DHT22;9576;47.792;9.628;2022-07-12T09:53:38;22.60;99.90
18888;DHT22;9576;47.792;9.628;2022-07-12T09:56:43;22.60;99.90
18888;DHT22;9576;47.792;9.628;2022-07-12T09:59:50;22.70;99.90
18888;DHT22;9576;47.792;9.628;2022-07-12T10:02:53;22.80;99.90
18888;DHT22;9576;47.792;9.628;2022-07-12T10:06:00;22.90;99.90
18888;DHT22;9576;47.792;9.628;2022-07-12T10:09:05;23.00;99.90
18888;DHT22;9576;47.792;9.628;2022-07-12T10:12:08;23.00;99.90
18888;DHT22;9576;47.792;9.628;2022-07-12T10:15:15;23.10;99.90
18888;DHT22;9576;47.792;9.628;2022-07-12T10:18:18;23.10;99.90
18888;DHT22;9576;47.792;9.628;2022-07-12T10:21:22;23.10;99.90
18888;DHT22;9576;47.792;9.628;2022-07-12T10:24:46;23.20;99.90
18888;DHT22;9576;47.792;9.628;2022-07-12T10:27:49;23.20;99.90
18888;DHT22;9576;47.792;9.628;2022-07-12T10:31:04;23.30;99.90
18888;DHT22;9576;47.792;9.628;2022-07-12T10:34:13;23.30;99.90
18888;DHT22;9576;47.792;9.628;2022-07-12T10:37:17;23.50;99.90
18888;DHT22;9576;47.792;9.628;2022-07-12T10:40:19;23.90;99.90
18888;DHT22;9576;47.792;9.628;2022-07-12T10:43:26;24.20;99.90
18888;DHT22;9576;47.792;9.628;2022-07-12T10:46:59;24.60;99.90
18888;DHT22;9576;47.792;9.628;2022-07-12T10:50:01;24.90;99.90
18888;DHT22;9576;47.792;9.628;2022-07-12T10:53:22;25.00;99.90
18888;DHT22;9576;47.792;9.628;2022-07-12T10:56:25;25.10;99.90
18888;DHT22;9576;47.792;9.628;2022-07-12T10:59:30;25.20;99.90
18888;DHT22;9576;47.792;9.628;2022-07-12T11:02:32;25.30;99.90
18888;DHT22;9576;47.792;9.628;2022-07-12T11:05:34;25.40;99.90
18888;DHT22;9576;47.792;9.628;2022-07-12T11:09:05;25.10;99.90
18888;DHT22;9576;47.792;9.628;2022-07-12T11:12:08;24.90;99.90
18888;DHT22;9576;47.792;9.628;2022-07-12T11:15:11;24.80;99.90
18888;DHT22;9576;47.792;9.628;2022-07-12T11:18:27;24.80;99.90
18888;DHT22;9576;47.792;9.628;2022-07-12T11:21:29;24.90;99.90
18888;DHT22;9576;47.792;9.628;2022-07-12T11:24:33;24.90;99.90
18888;DHT22;9576;47.792;9.628;2022-07-12T11:27:36;24.80;99.90
18888;DHT22;9576;47.792;9.628;2022-07-12T11:30:47;25.00;99.90
18888;DHT22;9576;47.792;9.628;2022-07-12T11:33:50;25.40;99.90
18888;DHT22;9576;47.792;9.628;2022-07-12T11:36:53;25.80;99.90
18888;DHT22;9576;47.792;9.628;2022-07-12T11:39:59;26.00;99.90
18888;DHT22;9576;47.792;9.628;2022-07-12T11:43:02;26.20;99.90
18888;DHT22;9576;47.792;9.628;2022-07-12T11:46:05;26.20;99.90
18888;DHT22;9576;47.792;9.628;2022-07-12T11:49:08;26.00;99.20
18888;DHT22;9576;47.792;9.628;2022-07-12T11:52:12;26.00;99.60
18888;DHT22;9576;47.792;9.628;2022-07-12T11:55:17;26.20;99.70
18888;DHT22;9576;47.792;9.628;2022-07-12T11:58:25;26.50;99.90
18888;DHT22;9576;47.792;9.628;2022-07-12T12:01:30;26.50;99.80
18888;DHT22;9576;47.792;9.628;2022-07-12T12:04:44;26.60;99.10
18888;DHT22;9576;47.792;9.628;2022-07-12T12:07:47;26.70;97.10
18888;DHT22;9576;47.792;9.628;2022-07-12T12:10:55;27.00;99.70
18888;DHT22;9576;47.792;9.628;2022-07-12T12:13:57;27.30;96.30
18888;DHT22;9576;47.792;9.628;2022-07-12T12:17:12;27.50;94.90
18888;DHT22;9576;47.792;9.628;2022-07-12T12:20:20;27.60;96.90
18888;DHT22;9576;47.792;9.628;2022-07-12T12:23:22;27.90;97.20
18888;DHT22;9576;47.792;9.628;2022-07-12T12:26:30;28.40;96.10
18888;DHT22;9576;47.792;9.628;2022-07-12T12:29:42;28.70;93.90
18888;DHT22;9576;47.792;9.628;2022-07-12T12:32:49;28.70;93.40
18888;DHT22;9576;47.792;9.628;2022-07-12T12:35:51;28.50;94.90
18888;DHT22;9576;47.792;9.628;2022-07-12T12:38:54;28.40;94.80
18888;DHT22;9576;47.792;9.628;2022-07-12T12:41:58;28.40;93.70
18888;DHT22;9576;47.792;9.628;2022-07-12T12:45:00;28.40;95.10
18888;DHT22;9576;47.792;9.628;2022-07-12T12:48:03;28.50;95.30
18888;DHT22;9576;47.792;9.628;2022-07-12T12:51:07;29.00;97.90
18888;DHT22;9576;47.792;9.628;2022-07-12T12:54:09;29.60;95.80
18888;DHT22;9576;47.792;9.628;2022-07-12T12:57:13;29.80;96.70
18888;DHT22;9576;47.792;9.628;2022-07-12T13:00:15;29.80;94.00
18888;DHT22;9576;47.792;9.628;2022-07-12T13:03:18;30.00;94.20
18888;DHT22;9576;47.792;9.628;2022-07-12T13:06:21;30.30;92.10
18888;DHT22;9576;47.792;9.628;2022-07-12T13:09:23;30.50;94.30
18888;DHT22;9576;47.792;9.628;2022-07-12T13:12:27;30.90;93.00
18888;DHT22;9576;47.792;9.628;2022-07-12T13:15:30;30.70;92.20
18888;DHT22;9576;47.792;9.628;2022-07-12T13:18:32;30.40;91.50
18888;DHT22;9576;47.792;9.628;2022-07-12T13:21:34;30.30;92.40
18888;DHT22;9576;47.792;9.628;2022-07-12T13:24:36;30.30;91.10
18888;DHT22;9576;47.792;9.628;2022-07-12T13:27:40;30.30;90.80
18888;DHT22;9576;47.792;9.628;2022-07-12T13:30:42;30.40;92.40
18888;DHT22;9576;47.792;9.628;2022-07-12T13:33:44;30.60;91.50
18888;DHT22;9576;47.792;9.628;2022-07-12T13:36:46;30.90;91.20
18888;DHT22;9576;47.792;9.628;2022-07-12T13:39:48;31.40;92.60
18888;DHT22;9576;47.792;9.628;2022-07-12T13:43:09;31.30;91.50
18888;DHT22;9576;47.792;9.628;2022-07-12T13:46:12;31.30;90.50
18888;DHT22;9576;47.792;9.628;2022-07-12T13:49:15;31.40;89.60
18888;DHT22;9576;47.792;9.628;2022-07-12T13:52:17;31.70;90.60
18888;DHT22;9576;47.792;9.628;2022-07-12T13:55:20;31.70;90.80
18888;DHT22;9576;47.792;9.628;2022-07-12T13:58:23;32.00;88.00
18888;DHT22;9576;47.792;9.628;2022-07-12T14:01:25;32.00;86.80
18888;DHT22;9576;47.792;9.628;2022-07-12T14:04:27;31.90;88.60
18888;DHT22;9576;47.792;9.628;2022-07-12T14:07:29;32.10;89.30
18888;DHT22;9576;47.792;9.628;2022-07-12T14:10:32;31.70;84.20
18888;DHT22;9576;47.792;9.628;2022-07-12T14:13:38;31.70;86.40
18888;DHT22;9576;47.792;9.628;2022-07-12T14:16:40;31.80;86.50
18888;DHT22;9576;47.792;9.628;2022-07-12T14:19:42;32.00;84.10
18888;DHT22;9576;47.792;9.628;2022-07-12T14:22:44;32.10;83.50
18888;DHT22;9576;47.792;9.628;2022-07-12T14:25:46;32.20;85.90
18888;DHT22;9576;47.792;9.628;2022-07-12T14:28:49;32.10;82.10
18888;DHT22;9576;47.792;9.628;2022-07-12T14:31:51;32.80;90.20
18888;DHT22;9576;47.792;9.628;2022-07-12T14:34:53;33.20;78.80
18888;DHT22;9576;47.792;9.628;2022-07-12T14:37:55;33.30;81.00
18888;DHT22;9576;47.792;9.628;2022-07-12T14:40:57;33.40;88.30
18888;DHT22;9576;47.792;9.628;2022-07-12T14:44:01;33.50;85.30
18888;DHT22;9576;47.792;9.628;2022-07-12T14:47:03;34.30;77.20
18888;DHT22;9576;47.792;9.628;2022-07-12T14:50:05;33.70;73.90
18888;DHT22;9576;47.792;9.628;2022-07-12T14:53:08;33.30;73.60
18888;DHT22;9576;47.792;9.628;2022-07-12T14:56:10;33.10;76.40
18888;DHT22;9576;47.792;9.628;2022-07-12T14:59:13;33.20;73.30
18888;DHT22;9576;47.792;9.628;2022-07-12T15:02:15;33.30;73.50
18888;DHT22;9576;47.792;9.628;2022-07-12T15:05:18;33.70;81.00
18888;DHT22;9576;47.792;9.628;2022-07-12T15:08:20;34.40;78.50
18888;DHT22;9576;47.792;9.628;2022-07-12T15:11:22;34.70;72.10
18888;DHT22;9576;47.792;9.628;2022-07-12T15:14:25;34.80;72.20
18888;DHT22;9576;47.792;9.628;2022-07-12T15:17:27;35.00;75.80
18888;DHT22;9576;47.792;9.628;2022-07-12T15:20:29;35.40;73.40
18888;DHT22;9576;47.792;9.628;2022-07-12T15:23:31;35.40;74.00
18888;DHT22;9576;47.792;9.628;2022-07-12T15:26:33;35.40;70.50
18888;DHT22;9576;47.792;9.628;2022-07-12T15:29:39;35.90;75.20
18888;DHT22;9576;47.792;9.628;2022-07-12T15:32:43;36.40;77.40
18888;DHT22;9576;47.792;9.628;2022-07-12T15:35:45;36.40;71.70
18888;DHT22;9576;47.792;9.628;2022-07-12T15:38:47;36.90;74.30
18888;DHT22;9576;47.792;9.628;2022-07-12T15:41:49;36.80;70.50
18888;DHT22;9576;47.792;9.628;2022-07-12T15:44:53;36.60;71.50
18888;DHT22;9576;47.792;9.628;2022-07-12T15:47:55;36.80;72.30
18888;DHT22;9576;47.792;9.628;2022-07-12T15:50:56;37.10;69.90
18888;DHT22;9576;47.792;9.628;2022-07-12T15:53:58;38.20;69.10
18888;DHT22;9576;47.792;9.628;2022-07-12T15:56:59;38.90;72.20
18888;DHT22;9576;47.792;9.628;2022-07-12T16:00:05;39.20;69.00
18888;DHT22;9576;47.792;9.628;2022-07-12T16:03:08;39.90;67.10
18888;DHT22;9576;47.792;9.628;2022-07-12T16:06:10;40.80;63.10
18888;DHT22;9576;47.792;9.628;2022-07-12T16:09:13;41.70;63.90
18888;DHT22;9576;47.792;9.628;2022-07-12T16:12:16;42.10;62.60
18888;DHT22;9576;47.792;9.628;2022-07-12T16:15:19;42.00;64.90
18888;DHT22;9576;47.792;9.628;2022-07-12T16:18:21;42.40;62.60
18888;DHT22;9576;47.792;9.628;2022-07-12T16:21:25;41.90;60.10
18888;DHT22;9576;47.792;9.628;2022-07-12T16:24:27;41.30;59.30
18888;DHT22;9576;47.792;9.628;2022-07-12T16:27:29;41.30;61.80
18888;DHT22;9576;47.792;9.628;2022-07-12T16:30:32;41.20;63.60
18888;DHT22;9576;47.792;9.628;2022-07-12T16:33:34;40.70;61.60
18888;DHT22;9576;47.792;9.628;2022-07-12T16:36:36;41.20;63.60
18888;DHT22;9576;47.792;9.628;2022-07-12T16:39:38;41.80;58.70
18888;DHT22;9576;47.792;9.628;2022-07-12T16:42:40;40.90;58.80
18888;DHT22;9576;47.792;9.628;2022-07-12T16:45:44;40.90;56.90
18888;DHT22;9576;47.792;9.628;2022-07-12T16:48:46;42.00;58.70
18888;DHT22;9576;47.792;9.628;2022-07-12T16:51:48;42.30;57.90
18888;DHT22;9576;47.792;9.628;2022-07-12T16:54:50;42.90;56.90
18888;DHT22;9576;47.792;9.628;2022-07-12T16:57:56;42.70;54.50
18888;DHT22;9576;47.792;9.628;2022-07-12T17:01:06;42.00;56.30
18888;DHT22;9576;47.792;9.628;2022-07-12T17:04:18;41.60;55.90
18888;DHT22;9576;47.792;9.628;2022-07-12T17:07:33;40.90;56.80
18888;DHT22;9576;47.792;9.628;2022-07-12T17:10:36;41.10;58.80
18888;DHT22;9576;47.792;9.628;2022-07-12T17:13:38;41.30;56.30
18888;DHT22;9576;47.792;9.628;2022-07-12T17:16:42;41.80;57.00
18888;DHT22;9576;47.792;9.628;2022-07-12T17:19:44;42.10;54.80
18888;DHT22;9576;47.792;9.628;2022-07-12T17:22:46;41.70;56.00
18888;DHT22;9576;47.792;9.628;2022-07-12T17:25:48;41.50;53.70
18888;DHT22;9576;47.792;9.628;2022-07-12T17:28:50;40.30;54.10
18888;DHT22;9576;47.792;9.628;2022-07-12T17:31:54;38.40;56.00
18888;DHT22;9576;47.792;9.628;2022-07-12T17:34:56;37.10;60.40
18888;DHT22;9576;47.792;9.628;2022-07-12T17:37:58;35.90;63.00
18888;DHT22;9576;47.792;9.628;2022-07-12T17:41:01;34.30;61.60
18888;DHT22;9576;47.792;9.628;2022-07-12T17:44:04;32.80;65.60
18888;DHT22;9576;47.792;9.628;2022-07-12T17:47:09;31.80;69.90
18888;DHT22;9576;47.792;9.628;2022-07-12T17:50:11;30.60;68.70
18888;DHT22;9576;47.792;9.628;2022-07-12T17:53:14;29.70;69.60
18888;DHT22;9576;47.792;9.628;2022-07-12T17:56:16;29.10;70.30
18888;DHT22;9576;47.792;9.628;2022-07-12T17:59:21;28.70;75.30
18888;DHT22;9576;47.792;9.628;2022-07-12T18:02:30;28.60;77.20
18888;DHT22;9576;47.792;9.628;2022-07-12T18:05:32;28.50;78.60
18888;DHT22;9576;47.792;9.628;2022-07-12T18:08:35;28.20;77.70
18888;DHT22;9576;47.792;9.628;2022-07-12T18:11:38;28.10;81.20
18888;DHT22;9576;47.792;9.628;2022-07-12T18:15:08;27.80;81.60
18888;DHT22;9576;47.792;9.628;2022-07-12T18:18:12;27.50;82.30
18888;DHT22;9576;47.792;9.628;2022-07-12T18:21:14;27.20;84.40
18888;DHT22;9576;47.792;9.628;2022-07-12T18:24:16;26.90;86.40
18888;DHT22;9576;47.792;9.628;2022-07-12T18:27:18;26.80;86.50
18888;DHT22;9576;47.792;9.628;2022-07-12T18:30:20;26.60;86.50
18888;DHT22;9576;47.792;9.628;2022-07-12T18:33:24;26.40;86.70
18888;DHT22;9576;47.792;9.628;2022-07-12T18:36:26;26.20;87.90
18888;DHT22;9576;47.792;9.628;2022-07-12T18:39:28;26.10;88.90
18888;DHT22;9576;47.792;9.628;2022-07-12T18:42:30;25.90;89.30
18888;DHT22;9576;47.792;9.628;2022-07-12T18:45:32;25.80;89.90
18888;DHT22;9576;47.792;9.628;2022-07-12T18:48:35;25.70;90.40
18888;DHT22;9576;47.792;9.628;2022-07-12T18:51:38;25.50;90.30
18888;DHT22;9576;47.792;9.628;2022-07-12T18:54:40;25.30;90.60
18888;DHT22;9576;47.792;9.628;2022-07-12T18:57:42;25.10;90.80
18888;DHT22;9576;47.792;9.628;2022-07-12T19:00:44;25.00;91.70
18888;DHT22;9576;47.792;9.628;2022-07-12T19:03:48;24.80;91.80
18888;DHT22;9576;47.792;9.628;2022-07-12T19:06:50;24.60;92.10
18888;DHT22;9576;47.792;9.628;2022-07-12T19:09:52;24.50;92.30
18888;DHT22;9576;47.792;9.628;2022-07-12T19:12:54;24.30;92.90
18888;DHT22;9576;47.792;9.628;2022-07-12T19:15:56;24.10;93.20
18888;DHT22;9576;47.792;9.628;2022-07-12T19:19:00;23.90;93.90
18888;DHT22;9576;47.792;9.628;2022-07-12T19:22:03;23.70;94.10
18888;DHT22;9576;47.792;9.628;2022-07-12T19:25:06;23.50;94.50
18888;DHT22;9576;47.792;9.628;2022-07-12T19:28:08;23.40;94.60
18888;DHT22;9576;47.792;9.628;2022-07-12T19:31:10;23.20;95.20
18888;DHT22;9576;47.792;9.628;2022-07-12T19:34:13;23.00;95.20
18888;DHT22;9576;47.792;9.628;2022-07-12T19:37:15;22.90;95.80